Hanover, Nebraska
Current Conditions -  °F | °C
As of 4:53 AM on Sunday 23 Nov 2014 (Local Time) from KHSI Reporting Station
Clear Clear  
Wind Chill: 47°   Ceiling: Unl
Heat Index: 49°   Visibility: 10mi
Dew Point: 45°   Wind: 5mph
Humidity: 86%   Direction: 200°SSW
Pressure: 29.44"   Gusts: NA
Location:  40.4809°N, 98.2217°W
Report Text: KHSI 231053Z AUTO 20004KT 10SM CLR 09/07 A2944 RMK AO2 SLP969 T00940072
Loading
Personal Weather Stations






























Interactive Weather Map New forecast layout! Learn more

10-Day Weather Forecast

Advertisements
Track Severe Weather on mobile